createdAt,value
2022-08-22T00:00:17.707Z,16.80
2022-08-22T00:02:55.327Z,16.90
2022-08-22T00:03:11.262Z,18.80
2022-08-22T00:03:23.950Z,16.70
2022-08-22T00:06:43.102Z,16.80
2022-08-22T00:10:25.217Z,16.80
2022-08-22T00:13:33.971Z,16.80
2022-08-22T00:16:51.495Z,16.60
2022-08-22T00:20:10.367Z,16.60
2022-08-22T00:29:55.608Z,16.60
2022-08-22T00:33:02.456Z,16.70
2022-08-22T00:36:29.740Z,16.90
2022-08-22T00:46:08.488Z,16.80
2022-08-22T00:49:48.049Z,16.80
2022-08-22T00:53:27.558Z,16.80
2022-08-22T00:56:42.588Z,16.80
2022-08-22T01:03:10.420Z,16.80
2022-08-22T01:15:42.803Z,16.80
2022-08-22T01:22:27.777Z,16.70
2022-08-22T01:28:41.940Z,16.60
2022-08-22T01:35:21.109Z,16.60
2022-08-22T01:38:43.294Z,16.60
2022-08-22T01:45:14.247Z,16.60
2022-08-22T01:51:46.225Z,16.60
2022-08-22T01:54:58.623Z,16.60
2022-08-22T01:58:04.874Z,16.50
2022-08-22T02:13:44.884Z,16.50
2022-08-22T02:16:53.390Z,16.60
2022-08-22T02:20:04.388Z,16.50
2022-08-22T02:23:37.341Z,16.60
2022-08-22T02:26:50.341Z,16.60
2022-08-22T02:30:10.121Z,16.60
2022-08-22T02:33:29.408Z,16.50
2022-08-22T02:36:50.608Z,16.50
2022-08-22T02:40:04.402Z,16.50
2022-08-22T02:43:29.085Z,16.40
2022-08-22T02:46:49.161Z,16.40
2022-08-22T02:53:14.589Z,16.40
2022-08-22T02:56:50.563Z,16.30
2022-08-22T03:03:38.694Z,16.30
2022-08-22T03:06:59.584Z,16.30
2022-08-22T03:10:14.990Z,16.30
2022-08-22T03:13:37.675Z,16.30
2022-08-22T03:20:10.839Z,16.20
2022-08-22T03:26:49.293Z,16.30
2022-08-22T03:29:58.004Z,16.30
2022-08-22T03:33:21.940Z,16.20
2022-08-22T03:36:27.804Z,16.20
2022-08-22T03:39:44.285Z,16.20
2022-08-22T03:42:58.565Z,16.30
2022-08-22T03:49:28.235Z,16.20
2022-08-22T03:52:46.838Z,16.20
2022-08-22T03:56:26.032Z,16.20
2022-08-22T03:59:53.116Z,16.20
2022-08-22T04:03:33.710Z,16.10
2022-08-22T04:07:28.384Z,16.10
2022-08-22T04:14:10.270Z,16.20
2022-08-22T04:27:17.303Z,16.10
2022-08-22T04:30:37.922Z,16.00
2022-08-22T04:37:09.222Z,16.00
2022-08-22T04:43:38.543Z,16.10
2022-08-22T04:47:02.565Z,16.00
2022-08-22T04:54:03.471Z,16.00
2022-08-22T04:57:55.914Z,16.00
2022-08-22T05:04:13.490Z,16.10
2022-08-22T05:10:25.458Z,16.10
2022-08-22T05:13:40.836Z,16.10
2022-08-22T05:16:48.707Z,16.10
2022-08-22T05:19:55.732Z,16.20
2022-08-22T05:23:17.402Z,16.10
2022-08-22T05:26:21.440Z,16.10
2022-08-22T05:29:27.809Z,16.10
2022-08-22T05:32:40.532Z,16.10
2022-08-22T05:35:50.146Z,16.10
2022-08-22T05:39:04.751Z,16.10
2022-08-22T05:42:13.965Z,16.10
2022-08-22T05:45:18.899Z,16.10
2022-08-22T05:51:32.238Z,16.10
2022-08-22T05:54:48.155Z,16.00
2022-08-22T06:07:40.088Z,16.10
2022-08-22T06:10:48.367Z,16.10
2022-08-22T06:13:58.110Z,16.10
2022-08-22T06:17:11.548Z,16.00
2022-08-22T06:20:21.062Z,16.00
2022-08-22T06:23:29.959Z,16.10
2022-08-22T06:30:00.412Z,16.00
2022-08-22T06:33:13.600Z,16.00
2022-08-22T06:36:20.647Z,16.00
2022-08-22T06:39:31.056Z,16.00
2022-08-22T06:42:36.863Z,16.10
2022-08-22T06:45:40.266Z,16.00
2022-08-22T06:48:44.235Z,16.00
2022-08-22T06:54:54.228Z,16.00
2022-08-22T06:58:05.319Z,16.00
2022-08-22T07:01:12.768Z,16.00
2022-08-22T07:04:15.659Z,16.10
2022-08-22T07:13:30.184Z,16.10
2022-08-22T07:16:39.654Z,16.10
2022-08-22T07:19:58.774Z,16.20
2022-08-22T07:23:10.350Z,16.20
2022-08-22T07:26:59.923Z,16.20
2022-08-22T07:36:39.968Z,16.30
2022-08-22T07:39:49.230Z,16.30
2022-08-22T07:46:02.687Z,16.30
2022-08-22T07:52:13.695Z,16.40
2022-08-22T07:58:23.816Z,16.30
2022-08-22T08:01:26.744Z,16.40
2022-08-22T08:04:36.912Z,16.40
2022-08-22T08:07:45.157Z,16.40
2022-08-22T08:10:48.924Z,16.40
2022-08-22T08:13:57.464Z,16.50
2022-08-22T08:17:09.981Z,16.50
2022-08-22T08:20:19.010Z,16.50
2022-08-22T08:23:23.435Z,16.50
2022-08-22T08:26:39.891Z,16.50
2022-08-22T08:29:51.101Z,16.50
2022-08-22T08:32:59.613Z,16.50
2022-08-22T08:39:37.266Z,16.50
2022-08-22T08:46:05.653Z,16.40
2022-08-22T08:49:33.615Z,16.40
2022-08-22T08:56:05.870Z,16.30
2022-08-22T09:05:50.880Z,16.40
2022-08-22T09:09:23.429Z,16.40
2022-08-22T09:15:58.677Z,16.50
2022-08-22T09:22:24.845Z,16.60
2022-08-22T09:32:00.987Z,16.70
2022-08-22T09:35:25.799Z,16.70
2022-08-22T09:42:14.087Z,16.60
2022-08-22T09:45:37.897Z,16.60
2022-08-22T09:49:09.946Z,16.80
2022-08-22T09:55:59.235Z,16.90
2022-08-22T09:59:21.997Z,16.90
2022-08-22T10:02:43.391Z,17.00
2022-08-22T10:06:05.561Z,17.00
2022-08-22T10:09:21.663Z,17.00
2022-08-22T10:15:53.314Z,16.90
2022-08-22T10:19:35.536Z,17.00
2022-08-22T10:26:01.601Z,16.90
2022-08-22T10:29:31.890Z,17.00
2022-08-22T10:36:06.160Z,17.10
2022-08-22T10:42:35.357Z,17.00
2022-08-22T10:45:44.019Z,17.00
2022-08-22T10:52:17.007Z,17.00
2022-08-22T10:55:27.491Z,17.00
2022-08-22T10:58:36.289Z,17.20
2022-08-22T11:01:46.108Z,17.10
2022-08-22T11:05:12.252Z,17.10
2022-08-22T11:08:43.234Z,17.00
2022-08-22T11:12:16.764Z,17.00
2022-08-22T11:15:38.973Z,17.00
2022-08-22T11:19:14.753Z,17.10
2022-08-22T11:22:38.337Z,17.10
2022-08-22T11:28:45.542Z,17.00
2022-08-22T11:32:09.976Z,16.90
2022-08-22T11:35:24.932Z,16.90
2022-08-22T11:38:36.518Z,16.90
2022-08-22T11:45:08.156Z,17.00
2022-08-22T11:48:41.335Z,17.00
2022-08-22T11:51:57.908Z,17.00
2022-08-22T12:04:42.680Z,16.90
2022-08-22T12:07:56.595Z,16.90
2022-08-22T12:11:11.270Z,16.90
2022-08-22T12:14:26.894Z,16.90
2022-08-22T12:24:20.853Z,17.00
2022-08-22T12:27:55.306Z,17.00
2022-08-22T12:31:06.553Z,17.00
2022-08-22T12:34:24.627Z,17.00
2022-08-22T12:37:52.029Z,17.10
2022-08-22T12:57:23.820Z,17.20
2022-08-22T13:00:45.310Z,17.30
2022-08-22T13:03:53.368Z,17.40
2022-08-22T13:07:07.457Z,17.40
2022-08-22T13:13:36.913Z,17.40
2022-08-22T13:16:48.962Z,17.40
2022-08-22T13:20:06.423Z,17.40
2022-08-22T13:23:39.968Z,17.40
2022-08-22T13:27:07.457Z,17.30
2022-08-22T13:30:26.710Z,17.40
2022-08-22T13:33:40.733Z,17.40
2022-08-22T13:36:51.708Z,17.40
2022-08-22T13:40:04.486Z,17.40
2022-08-22T13:43:10.653Z,17.40
2022-08-22T13:49:18.583Z,17.30
2022-08-22T13:52:37.913Z,17.30
2022-08-22T13:58:50.006Z,17.20
2022-08-22T14:02:17.896Z,17.20
2022-08-22T14:08:34.318Z,17.40
2022-08-22T14:11:48.675Z,17.30
2022-08-22T14:15:00.196Z,17.30
2022-08-22T14:18:14.174Z,17.40
2022-08-22T14:21:28.603Z,17.30
2022-08-22T14:24:55.999Z,17.40
2022-08-22T14:28:06.430Z,17.50
2022-08-22T14:31:13.876Z,17.50
2022-08-22T14:34:17.103Z,17.40
2022-08-22T14:37:30.369Z,17.50
2022-08-22T14:40:36.399Z,17.40
2022-08-22T14:44:02.614Z,17.40
2022-08-22T14:47:15.872Z,17.40
2022-08-22T14:53:44.588Z,17.50
2022-08-22T14:56:48.680Z,17.60
2022-08-22T14:59:52.269Z,17.50
2022-08-22T15:03:05.353Z,17.50
2022-08-22T15:06:12.073Z,17.40
2022-08-22T15:09:32.879Z,17.40
2022-08-22T15:12:39.460Z,17.30
2022-08-22T15:15:53.406Z,17.20
2022-08-22T15:18:58.235Z,17.30
2022-08-22T15:25:37.610Z,17.30
2022-08-22T15:32:00.265Z,17.40
2022-08-22T15:35:07.639Z,17.30
2022-08-22T15:38:27.839Z,17.30
2022-08-22T15:41:40.888Z,17.30
2022-08-22T15:44:47.461Z,17.20
2022-08-22T15:47:52.651Z,17.20
2022-08-22T15:51:02.506Z,17.20
2022-08-22T15:54:25.011Z,17.30
2022-08-22T16:00:30.669Z,17.20
2022-08-22T16:03:36.391Z,17.10
2022-08-22T16:06:50.692Z,17.10
2022-08-22T16:09:56.673Z,17.10
2022-08-22T16:13:37.953Z,17.10
2022-08-22T16:17:03.234Z,17.10
2022-08-22T16:29:41.261Z,17.00
2022-08-22T16:32:52.615Z,16.90
2022-08-22T16:36:32.368Z,16.90
2022-08-22T16:42:39.660Z,17.00
2022-08-22T16:45:44.473Z,16.80
2022-08-22T16:52:07.681Z,16.80
2022-08-22T16:55:28.590Z,16.80
2022-08-22T16:59:09.953Z,16.80
2022-08-22T17:02:52.882Z,16.70
2022-08-22T17:06:25.597Z,16.80
2022-08-22T17:09:45.584Z,16.80
2022-08-22T17:13:11.732Z,16.80
2022-08-22T17:16:36.667Z,16.70
2022-08-22T17:20:06.885Z,16.80
2022-08-22T17:23:46.637Z,16.80
2022-08-22T17:26:58.061Z,16.70
2022-08-22T17:30:25.695Z,16.80
2022-08-22T17:40:28.304Z,16.50
2022-08-22T17:43:49.049Z,16.50
2022-08-22T17:47:12.238Z,16.40
2022-08-22T17:50:46.070Z,16.40
2022-08-22T17:53:54.602Z,16.40
2022-08-22T17:57:05.966Z,16.30
2022-08-22T18:00:25.416Z,16.30
2022-08-22T18:03:35.148Z,16.30
2022-08-22T18:06:46.283Z,16.20
2022-08-22T18:10:17.320Z,16.10
2022-08-22T18:13:54.813Z,16.10
2022-08-22T18:16:59.607Z,16.10
2022-08-22T18:20:25.084Z,16.10
2022-08-22T18:23:40.154Z,16.10
2022-08-22T18:29:52.972Z,16.10
2022-08-22T18:33:42.730Z,16.00
2022-08-22T18:36:55.449Z,16.00
2022-08-22T18:40:11.414Z,16.00
2022-08-22T18:43:19.867Z,16.00
2022-08-22T18:49:30.798Z,16.10
2022-08-22T18:52:38.162Z,16.00
2022-08-22T18:55:55.772Z,16.00
2022-08-22T19:02:33.836Z,16.00
2022-08-22T19:06:04.803Z,16.00
2022-08-22T19:12:53.989Z,15.90
2022-08-22T19:16:14.133Z,15.90
2022-08-22T19:22:31.079Z,15.90
2022-08-22T19:28:37.593Z,15.80
2022-08-22T19:34:47.688Z,15.80
2022-08-22T19:37:57.979Z,15.70
2022-08-22T19:41:00.197Z,15.70
2022-08-22T19:53:32.173Z,15.90
2022-08-22T19:56:59.270Z,15.70
2022-08-22T20:00:16.198Z,15.80
2022-08-22T20:03:42.317Z,15.80
2022-08-22T20:10:18.247Z,15.80
2022-08-22T20:13:29.975Z,15.70
2022-08-22T20:17:06.585Z,15.80
2022-08-22T20:20:35.031Z,15.90
2022-08-22T20:26:57.660Z,15.70
2022-08-22T20:33:11.402Z,15.60
2022-08-22T20:36:28.409Z,15.60
2022-08-22T20:39:58.809Z,15.70
2022-08-22T20:43:31.979Z,15.80
2022-08-22T20:46:53.618Z,15.70
2022-08-22T20:50:01.007Z,15.70
2022-08-22T20:53:16.001Z,15.60
2022-08-22T20:56:46.007Z,15.60
2022-08-22T21:00:10.900Z,15.60
2022-08-22T21:03:32.148Z,15.60
2022-08-22T21:12:39.214Z,15.60
2022-08-22T21:15:46.219Z,15.60
2022-08-22T21:18:51.275Z,15.60
2022-08-22T21:28:00.115Z,15.60
2022-08-22T21:31:11.904Z,15.60
2022-08-22T21:34:41.971Z,15.60
2022-08-22T21:37:46.564Z,15.60
2022-08-22T21:43:54.164Z,15.60
2022-08-22T21:46:57.611Z,15.50
2022-08-22T21:50:13.226Z,15.50
2022-08-22T21:53:27.694Z,15.50
2022-08-22T21:59:51.576Z,15.60
2022-08-22T22:03:02.874Z,15.60
2022-08-22T22:06:06.651Z,15.50
2022-08-22T22:15:23.452Z,15.50
2022-08-22T22:18:30.646Z,15.50
2022-08-22T22:24:35.106Z,15.60
2022-08-22T22:30:40.133Z,15.50
2022-08-22T22:39:47.856Z,15.50
2022-08-22T22:42:50.519Z,15.50
2022-08-22T22:45:52.579Z,15.50
2022-08-22T22:55:04.231Z,15.40
2022-08-22T23:01:19.805Z,15.40
2022-08-22T23:04:21.924Z,15.40
2022-08-22T23:07:26.297Z,15.50
2022-08-22T23:10:30.215Z,15.50
2022-08-22T23:16:40.042Z,15.50
2022-08-22T23:28:53.306Z,15.40
2022-08-22T23:31:58.763Z,15.30
2022-08-22T23:38:03.210Z,15.30
2022-08-22T23:41:09.814Z,15.40
2022-08-22T23:44:15.380Z,15.40
2022-08-22T23:47:17.568Z,15.30
2022-08-22T23:53:22.092Z,15.30
2022-08-22T23:56:36.574Z,15.30
2022-08-22T23:59:40.738Z,15.30
